Grnwood, Indiana
Current Conditions -  °F | °C
As of 8:38 AM on Friday 19 Dec 2014 (Local Time) from KIND Reporting Station
Broken Clouds Broken Clouds  
Wind Chill: 22°   Ceiling: 2800
Heat Index: 22°   Visibility: 7mi
Dew Point: 18°   Wind: 0mph
Humidity: 85%   Direction: NA
Pressure: 30.28"   Gusts: NA
Location:  39.5883°N, 86.07°W
Report Text: KIND 191338Z 00000KT 7SM BKN028 M06/M08 A3028 RMK AO2 T10561078
Loading
Personal Weather Stations






























Interactive Weather Map New forecast layout! Learn more

10-Day Weather Forecast

Advertisements
Track Severe Weather on mobile